aviador You're here:

MMCN Decoded Metar

CIUDAD OBREGON in MEXICO
Report Time2017-12-16 23:47:00
UTC Time2017-12-17 00:38:16
Flight Rules vfr VFR
Wind160° at 12 kt
W.Decomp.*RWY 13: 11.3 kt HW 4.1 kt RCW
W.Rank160° ranks 22
Current wind is above 160° avg. (6.3)
Visibility9999 m
Phenomena:N/A
Clouds:Overcast 200 Hf
Expected CloudBase > 4,800 ft AGL from Temp-Dew spread
Ceiling20,000 ft
Temp22°C (ISA +7)
Dew Point10°C (47% RH)
AAT17.8°C
QNH1010 hPa
Density Alt1,257 ft
Elevation141 ft
Report Wrong Elevation
Raw Report
MMCN 162347Z 16012KT 10SM OVC200 22/10 A2982 RMK SLP098 8/007
HZY=

Extra information for MMCN:More info

Metar Taf Metar & Taf Last 4 Metars F.Rules Stats Wind Profile Meteogram Temp Stats Airport Information Weather charts Add Link Nearby VenuesMetar ALERT Operation Metar Decoded Social comments